Time;durP1;ratioP1;P1;durP2;ratioP2;P2;SDS_P1;SDS_P2;PMS_P1;PMS_P2;Temp;Humidity;BMP_temperature;BMP_pressure;BME280_temperature;BME280_humidity;BME280_pressure;Samples;Min_cycle;Max_cycle;Signal;HPM_P1;HPM_P2
2023/08/27 00:13:43;;;;;;;9.30;5.00;;;;;;;26.86;100.00;100055.75;31374125;28;20322;-76
2023/08/27 00:28:45;;;;;;;7.50;5.50;;;;;;;26.75;100.00;100037.94;31372051;28;20075;-76
2023/08/27 00:43:47;;;;;;;5.53;4.97;;;;;;;27.19;100.00;100052.38;31356612;28;20059;-77
2023/08/27 00:58:49;;;;;;;8.87;5.40;;;;;;;26.57;100.00;100041.53;31401934;28;20044;-75
2023/08/27 01:13:57;;;;;;;8.57;5.33;;;;;;;26.87;100.00;100051.69;31345278;28;20057;-75
2023/08/27 01:29:07;;;;;;;8.10;5.43;;;;;;;26.83;99.80;100047.19;31341827;28;20426;-75
2023/08/27 01:44:09;;;;;;;9.02;5.78;;;;;;;26.87;95.92;100051.69;31322131;28;20048;-76
2023/08/27 01:59:11;;;;;;;6.47;5.03;;;;;;;26.87;92.51;100051.69;31336276;28;20147;-75
2023/08/27 02:14:13;;;;;;;9.13;5.53;;;;;;;26.82;90.21;100056.06;31354835;28;20083;-76
2023/08/27 02:29:17;;;;;;;9.88;5.10;;;;;;;26.88;87.89;100067.13;31359866;28;20052;-76
2023/08/27 02:44:19;;;;;;;7.67;4.90;;;;;;;27.03;85.97;100070.16;31371463;28;20099;-76
2023/08/27 02:59:21;;;;;;;10.87;4.87;;;;;;;26.76;84.75;100058.19;31371604;28;20151;-74
2023/08/27 03:14:22;;;;;;;10.68;5.93;;;;;;;26.46;85.82;100061.19;31381918;28;20490;-76
2023/08/27 03:29:25;;;;;;;10.45;6.68;;;;;;;26.68;84.38;100074.78;31383983;28;20148;-76
2023/08/27 03:44:27;;;;;;;14.10;7.97;;;;;;;26.50;85.39;100089.47;31376375;28;20092;-77
2023/08/27 03:59:29;;;;;;;16.97;9.83;;;;;;;26.42;86.71;100074.69;31367953;28;20068;-77
2023/08/27 04:14:31;;;;;;;17.67;11.13;;;;;;;26.90;86.40;100039.47;31375721;28;20413;-74
2023/08/27 04:29:33;;;;;;;31.60;16.20;;;;;;;26.68;88.25;100046.94;31381331;28;20076;-76
2023/08/27 04:44:35;;;;;;;31.50;18.27;;;;;;;26.79;87.64;100038.38;31376174;28;20418;-77
2023/08/27 04:59:37;;;;;;;36.20;19.43;;;;;;;26.94;87.13;100034.31;31361696;28;20210;-78
2023/08/27 05:14:40;;;;;;;47.47;22.87;;;;;;;27.12;87.46;100030.75;31364501;28;20040;-75
2023/08/27 05:29:42;;;;;;;50.23;23.07;;;;;;;27.66;85.15;100062.91;31363734;28;20141;-78
2023/08/27 05:44:44;;;;;;;56.17;28.27;;;;;;;28.09;84.37;100042.97;31357552;28;20782;-78
2023/08/27 05:59:46;;;;;;;44.43;24.03;;;;;;;28.41;82.96;100028.81;31361567;28;20055;-77
2023/08/27 06:14:48;;;;;;;40.63;21.83;;;;;;;29.74;78.66;100046.91;31356784;28;20418;-78
2023/08/27 06:29:50;;;;;;;32.57;15.93;;;;;;;31.35;70.96;100036.63;31347704;28;20075;-78
2023/08/27 06:44:52;;;;;;;13.18;7.78;;;;;;;32.68;62.00;100032.75;31420272;28;20140;-77
2023/08/27 06:59:54;;;;;;;9.05;7.03;;;;;;;34.18;55.17;100014.75;31361356;28;20055;-77
2023/08/27 07:14:56;;;;;;;18.00;6.50;;;;;;;34.92;50.24;100009.09;31347287;28;20051;-76
2023/08/27 07:29:58;;;;;;;8.98;6.45;;;;;;;35.01;48.32;99978.06;31353935;28;20453;-78
2023/08/27 07:45:00;;;;;;;8.65;5.50;;;;;;;36.13;44.34;99967.06;31377488;28;20055;-78
2023/08/27 08:00:03;;;;;;;7.07;5.07;;;;;;;36.75;41.96;99952.19;31341280;28;20510;-80
2023/08/27 08:15:05;;;;;;;5.97;5.25;;;;;;;37.53;39.75;99962.22;31353321;28;20048;-79
2023/08/27 08:30:07;;;;;;;9.43;5.43;;;;;;;38.42;38.80;99954.94;31376752;28;20099;-80
2023/08/27 08:45:19;;;;;;;6.82;4.85;;;;;;;38.91;36.80;99954.97;31366979;28;20446;-81
2023/08/27 09:00:22;;;;;;;6.40;4.63;;;;;;;39.63;36.09;99938.47;31356922;28;20086;-79
2023/08/27 09:15:25;;;;;;;15.70;10.57;;;;;;;40.26;37.06;99924.75;31365263;28;20057;-78
2023/08/27 09:30:28;;;;;;;11.77;5.72;;;;;;;39.77;38.60;99921.44;31371187;28;20064;-79
2023/08/27 09:45:30;;;;;;;8.85;6.53;;;;;;;39.88;39.65;99895.06;31358887;28;20144;-78
2023/08/27 10:00:34;;;;;;;13.10;6.85;;;;;;;40.10;40.96;99861.38;31367553;28;20051;-79
2023/08/27 10:15:36;;;;;;;12.23;7.10;;;;;;;40.18;41.63;99848.28;31364082;28;20413;-79
2023/08/27 10:30:39;;;;;;;10.85;7.47;;;;;;;41.65;40.70;99849.63;31367880;28;20053;-79
2023/08/27 10:45:41;;;;;;;13.80;8.00;;;;;;;41.18;40.20;99828.28;31372201;28;20460;-82
2023/08/27 11:01:05;;;;;;;12.52;7.63;;;;;;;42.00;39.04;99817.69;31372495;28;20053;-81
2023/08/27 11:16:11;;;;;;;9.35;5.35;;;;;;;43.39;37.26;99799.69;31394366;28;20348;-81
2023/08/27 11:31:17;;;;;;;10.68;5.22;;;;;;;43.77;36.80;99791.03;31417143;28;20053;-80
2023/08/27 11:46:21;;;;;;;9.48;6.55;;;;;;;42.05;37.76;99757.31;31387252;28;20144;-81
2023/08/27 12:01:29;;;;;;;7.25;4.85;;;;;;;39.97;40.73;99740.66;31433504;28;20049;-80
2023/08/27 12:16:33;;;;;;;5.82;4.72;;;;;;;39.36;42.14;99731.84;31436460;28;20049;-81
2023/08/27 12:31:35;;;;;;;6.47;4.95;;;;;;;39.05;43.81;99718.16;31447261;28;20064;-80
2023/08/27 12:46:37;;;;;;;6.80;4.70;;;;;;;38.79;44.14;99697.59;31368962;28;20048;-79
2023/08/27 13:01:40;;;;;;;5.72;4.68;;;;;;;38.47;44.93;99701.47;31378023;28;20053;-80
2023/08/27 13:16:42;;;;;;;11.77;5.70;;;;;;;38.39;44.70;99698.19;31392724;28;20044;-81
2023/08/27 13:31:46;;;;;;;5.65;4.97;;;;;;;38.41;44.32;99698.31;31382598;28;20041;-84
2023/08/27 13:46:50;;;;;;;6.53;5.13;;;;;;;37.96;44.52;99690.09;31401157;28;20044;-84
2023/08/27 14:01:52;;;;;;;15.40;8.65;;;;;;;37.33;45.92;99675.06;31397844;28;20053;-80
2023/08/27 14:16:57;;;;;;;10.70;6.82;;;;;;;37.11;46.70;99656.72;31402852;28;20045;-85
2023/08/27 14:32:03;;;;;;;11.75;6.25;;;;;;;37.01;47.06;99658.97;31391140;28;20405;-78
2023/08/27 14:47:08;;;;;;;12.45;6.03;;;;;;;37.11;47.05;99656.72;31364790;28;20513;-79
2023/08/27 15:02:13;;;;;;;7.40;5.72;;;;;;;36.78;47.79;99643.47;31386481;28;20090;-80
2023/08/27 15:17:16;;;;;;;9.20;6.03;;;;;;;36.83;47.94;99645.19;31373014;28;20044;-79
2023/08/27 15:32:18;;;;;;;12.68;6.45;;;;;;;36.64;48.50;99645.38;31404370;28;20049;-82
2023/08/27 15:47:23;;;;;;;9.85;4.82;;;;;;;36.41;48.13;99653.81;31360938;28;20126;-82
2023/08/27 16:02:25;;;;;;;8.63;4.65;;;;;;;36.20;47.84;99666.63;31366133;28;20312;-80
2023/08/27 16:17:27;;;;;;;12.88;4.78;;;;;;;35.94;47.96;99653.63;31422212;28;20048;-81
2023/08/27 16:32:29;;;;;;;8.25;6.05;;;;;;;35.74;47.61;99649.47;31407626;28;20048;-79
2023/08/27 16:47:31;;;;;;;9.65;5.70;;;;;;;35.51;48.30;99656.47;31406735;28;20080;-79
2023/08/27 17:02:34;;;;;;;9.98;5.97;;;;;;;35.38;48.72;99671.13;31391924;28;20110;-81
2023/08/27 17:17:36;;;;;;;11.52;6.88;;;;;;;35.04;49.20;99694.09;31385100;28;20144;-80
2023/08/27 17:32:38;;;;;;;15.77;9.23;;;;;;;34.85;50.08;99690.03;31371944;28;20106;-80
2023/08/27 17:47:43;;;;;;;13.93;8.45;;;;;;;34.60;51.06;99692.44;31367957;28;20422;-80
2023/08/27 18:03:07;;;;;;;;;;;;;;;;;;;;;
2023/08/27 18:18:10;;;;;;;20.35;10.13;;;;;;;33.57;57.75;99702.47;31379302;28;20413;-81
2023/08/27 18:33:21;;;;;;;14.40;9.88;;;;;;;32.90;62.55;99697.31;31390198;28;20049;-80
2023/08/27 18:48:24;;;;;;;12.68;8.20;;;;;;;32.30;65.71;99707.28;31385323;28;20081;-80
2023/08/27 19:03:26;;;;;;;82.53;42.35;;;;;;;32.30;65.07;99693.25;31372337;28;20068;-79
2023/08/27 19:18:28;;;;;;;15.95;9.75;;;;;;;32.03;67.02;99679.84;31361119;28;20144;-80
2023/08/27 19:33:30;;;;;;;11.88;7.40;;;;;;;31.95;66.96;99662.34;31380066;28;20083;-80
2023/08/27 19:48:36;;;;;;;13.80;7.50;;;;;;;31.69;69.02;99660.19;31387848;28;20057;-79
2023/08/27 20:03:38;;;;;;;14.15;8.00;;;;;;;31.67;70.41;99657.94;31401795;28;20052;-79
2023/08/27 20:18:40;;;;;;;11.00;7.43;;;;;;;31.89;69.06;99661.13;31367834;28;20053;-77
2023/08/27 20:33:45;;;;;;;15.00;10.07;;;;;;;31.46;71.64;99661.13;31371860;28;20588;-78
2023/08/27 20:48:49;;;;;;;11.43;7.78;;;;;;;31.20;74.36;99644.88;31363024;28;20060;-77
2023/08/27 21:03:51;;;;;;;10.73;7.15;;;;;;;31.29;72.84;99657.53;31370234;28;20047;-78
2023/08/27 21:18:53;;;;;;;10.68;7.45;;;;;;;31.16;73.53;99650.19;31380195;28;20049;-78
2023/08/27 21:33:58;;;;;;;12.18;7.85;;;;;;;30.93;74.95;99649.59;31366413;28;20560;-80
2023/08/27 21:49:02;;;;;;;13.95;7.00;;;;;;;30.82;75.83;99640.31;31368483;28;20111;-79
2023/08/27 22:04:04;;;;;;;16.58;8.05;;;;;;;30.63;77.31;99634.44;31386133;28;20045;-81
2023/08/27 22:19:06;;;;;;;11.77;7.30;;;;;;;30.54;77.93;99637.81;31385802;28;20052;-79
2023/08/27 22:34:24;;;;;;;15.45;7.47;;;;;;;30.47;79.45;99644.22;31370082;28;20076;-79
2023/08/27 22:49:27;;;;;;;10.20;7.38;;;;;;;30.22;81.28;99632.22;31371701;28;20153;-79
2023/08/27 23:04:29;;;;;;;14.65;8.43;;;;;;;30.13;83.10;99627.97;31371768;28;20064;-77
2023/08/27 23:19:41;;;;;;;18.00;10.48;;;;;;;29.93;85.98;99631.72;31365594;28;20525;-76
2023/08/27 23:34:43;;;;;;;13.50;8.10;;;;;;;29.78;87.03;99632.50;31383512;28;20450;-77
2023/08/27 23:49:45;;;;;;;17.67;8.73;;;;;;;29.56;89.18;99627.72;31370881;28;20052;-78
